Sonic Adventure (DX): Time Rankings

Records: Times | Rings | Scores | Races | Bosses | Freestyle
Leaders: Times | Rings | Scores | Races | Bosses | Freestyle | Overall
Rank Player Percent Points Date
1 Gamepro011 99.5% 28 10-23-17
2 Sonicspeedruner 98.4% 86 10-23-17
3 Dashjump 94.7% 294 10-23-17
3 Jawzun 94.7% 294 10-23-17
5 DarkPolarNight 93.8% 348 10-23-17
6 drminus 91.7% 464 10-23-17
7 F-Man 91.6% 474 10-23-17
8 THC98 91.2% 493 10-23-17
9 ike6252 89.3% 603 10-23-17
10 Avento128bits 88.9% 624 10-23-17
11 francisco 88.6% 643 10-23-17
12 ethmar 88.1% 671 10-23-17
13 DarkspinesSonic 88.0% 673 10-23-17
14 Marth 87.9% 678 10-23-17
15 frankoredstrato 86.7% 750 10-23-17
16 TheRealShadnic 85.0% 842 10-23-17
17 chainchumper 84.7% 859 10-23-17
18 Paragod 84.0% 901 10-23-17
19 HyperSonic7701 83.8% 914 10-23-17
20 xXMegaManXx 80.8% 1081 10-23-17
21 InferSaime 80.8% 1083 10-23-17
22 Coolfansonic 80.5% 1096 10-23-17
23 Stefan 79.3% 1165 10-23-17
24 PfoSonic 78.9% 1190 10-23-17
25 bertin 77.1% 1292 10-23-17
26 yoshifan 76.5% 1322 10-23-17
27 Dave Cramer 75.0% 1410 10-23-17
28 RPGnutter 74.7% 1425 10-23-17
29 sonicam 73.1% 1514 10-23-17
30 Cybrax 72.9% 1530 10-23-17
31 Ring Rush 70.4% 1668 10-23-17
32 mike89 69.6% 1713 10-23-17
33 Nim 69.5% 1720 10-23-17
34 NintenDan 69.3% 1733 10-23-17
35 a_moustache 67.6% 1824 10-23-17
36 chaos shadow 66.1% 1910 10-23-17
37 SkyLights 65.8% 1929 10-23-17
38 Combo 64.4% 2007 10-23-17
39 SADXTryHard 62.0% 2144 10-23-17
40 P1 Pause 61.7% 2162 10-23-17
41 Groudon199 59.6% 2276 10-23-17
42 Shadow Jacky 59.0% 2315 10-23-17
43 Game_Complete 58.8% 2325 10-23-17
44 AxlThunder 58.4% 2345 10-23-17
45 VMU Player Banned 57.8% 2381 10-23-17
46 Thorn 57.8% 2383 10-23-17
47 The Knuckles Chao 56.6% 2446 10-23-17
48 SB737 56.5% 2451 10-23-17
49 Chao_Fan 56.2% 2473 10-23-17
50 SadisticMystic 56.0% 2481 10-23-17
51 Mastakirby 55.5% 2508 10-23-17
52 Parax 55.3% 2519 10-23-17
53 OmegaDJ 55.0% 2536 10-23-17
54 LittleBigness 54.8% 2552 10-23-17
55 KinkyCadence 54.7% 2555 10-23-17
56 mauserman 54.5% 2565 10-23-17
57 Auriman1 54.5% 2567 10-23-17
57 Psyknux 54.5% 2567 10-23-17
59 magnum12 54.3% 2579 10-23-17
60 Turbos 54.0% 2595 10-23-17
61 GerbilSoft 53.4% 2628 10-23-17
62 GreatStar 53.0% 2651 10-23-17
63 Webber3000 52.7% 2669 10-23-17
64 Hipertails12 51.3% 2746 10-23-17
65 James_Bertolli 49.5% 2849 10-23-17
66 Cream147 49.1% 2870 10-23-17
67 welldooder64 48.4% 2911 10-23-17
68 Skylace 48.3% 2919 10-23-17
69 Quartz 48.0% 2932 10-23-17
70 Omega Rafael Santos 47.8% 2946 10-23-17
71 Psymar 47.7% 2948 10-23-17
72 Dekuboy 47.6% 2955 10-23-17
73 Diamond 47.6% 2956 10-23-17
74 N 47.3% 2973 10-23-17
75 teamblackarms 46.8% 3002 10-23-17
76 SonicWinDX 46.6% 3015 10-23-17
77 Andrea Ritsu 46.1% 3041 10-23-17
78 buddychaos0415 45.7% 3064 10-23-17
79 SilverSonic 45.0% 3102 10-23-17
80 Niczur 44.7% 3121 10-23-17
81 SilvertheAlmighty 44.6% 3128 10-23-17
82 itsPersonnal 43.9% 3165 10-23-17
82 metanightmare22 43.9% 3165 10-23-17
84 WeegeeZV 43.9% 3167 10-23-17
85 lordmetalsonic 41.6% 3293 10-23-17
86 Arch 41.2% 3320 10-23-17
87 videogamemaster777 40.2% 3373 10-23-17
88 Termon 40.0% 3386 10-23-17
89 supersonicfan 39.9% 3390 10-23-17
90 LilZero 39.1% 3436 10-23-17
91 Drakodan 39.1% 3438 10-23-17
92 paulie9990 38.9% 3448 10-23-17
93 Kanimayo_Jp 38.8% 3452 10-23-17
94 FuzZerd 38.7% 3457 10-23-17
95 supersonic465 38.6% 3465 10-23-17
96 eggFL 38.2% 3488 10-23-17
97 BigAL49 37.9% 3502 10-23-17
98 JamminX42 37.7% 3518 10-23-17
99 danieldude 37.2% 3541 10-23-17
100 Don 37.0% 3553 10-23-17
101 Siavash Tazari 36.6% 3580 10-23-17
102 Fr3nZy 36.0% 3609 10-23-17
103 f0rever_zer0 35.6% 3635 10-23-17
104 Cod4Scopes 35.0% 3670 10-23-17
105 Cyan Ryan 34.9% 3671 10-23-17
106 LinksDarkArrows 34.6% 3693 10-23-17
107 Therio 34.0% 3726 10-23-17
108 elecmouse101 33.6% 3744 10-23-17
109 Austinf 33.6% 3746 10-23-17
110 Staf 33.5% 3754 10-23-17
111 MiStEr_ShAoLiN 33.1% 3775 10-23-17
112 Twilisailor 32.9% 3789 10-23-17
113 videogamer1014 32.5% 3808 10-23-17
114 BrokenArthritis 32.1% 3829 10-23-17
115 Xia 31.9% 3842 10-23-17
116 AC-Tygo 31.7% 3854 10-23-17
117 welshmoose05 31.5% 3866 10-23-17
118 OddCook 30.9% 3901 10-23-17
119 The Great Lord Mick 30.5% 3921 10-23-17
120 Aitamen 30.0% 3948 10-23-17
121 Maxinfamily 29.9% 3957 10-23-17
122 Mcshuggets 29.8% 3959 10-23-17
123 Matt_TY 29.7% 3968 10-23-17
124 dabestgamer 29.4% 3986 10-23-17
125 joecoolgames 29.2% 3997 10-23-17
126 SuperBlitzCraig 28.7% 4023 10-23-17
127 Irregular Zero 28.5% 4032 10-23-17
128 Shadowthegreat 28.0% 4063 10-23-17
129 superjupi 27.9% 4068 10-23-17
130 SuperSonic101 27.9% 4069 10-23-17
131 Rolken 27.6% 4087 10-23-17
132 thewaytodawnnn 27.2% 4106 10-23-17
133 sonamyfan666 27.1% 4114 10-23-17
134 koinu93 26.9% 4124 10-23-17
135 Spinballwizard 26.8% 4131 10-23-17
136 iarebored 26.8% 4132 10-23-17
137 Hunters13 26.7% 4135 10-23-17
138 SonicKnuckles 26.5% 4145 10-23-17
139 SaviourDC 26.5% 4146 10-23-17
140 EngiNerd 25.6% 4198 10-23-17
141 adf 25.5% 4203 10-23-17
142 Megaman EXE565 24.8% 4245 10-23-17
143 The T 24.5% 4260 10-23-17
144 Sonic Singularity 23.9% 4294 10-23-17
145 Platformer 23.6% 4313 10-23-17
146 Pokemonmaster888 23.3% 4329 10-23-17
147 SeaWolf 23.3% 4331 10-23-17
148 timpkmn89 23.2% 4334 10-23-17
149 Swift Hobo 22.6% 4367 10-23-17
150 Sondow 22.5% 4375 10-23-17
151 ModifiedMonkee 22.3% 4387 10-23-17
152 Rickyman48 21.9% 4405 10-23-17
153 KitsuneYamaro 21.9% 4410 10-23-17
154 FoxBoy 21.6% 4426 10-23-17
155 Kogen Player Banned 21.0% 4457 10-23-17
156 TFEC Headshot 20.9% 4462 10-23-17
157 Jerzia 20.7% 4475 10-23-17
158 Starlight Sable 20.0% 4514 10-23-17
159 HyperSonic64 19.8% 4528 10-23-17
160 IsisDazs 19.5% 4542 10-23-17
161 crazy1993 19.3% 4553 10-23-17
162 Powerjohn25 19.3% 4555 10-23-17
163 andres430 19.2% 4559 10-23-17
164 SonicU260 18.3% 4612 10-23-17
165 MPit08 17.8% 4640 10-23-17
166 SonicAD 17.7% 4644 10-23-17
167 Swinkly 17.4% 4659 10-23-17
168 iSonicKid2K 17.2% 4671 10-23-17
169 sonicd5 17.2% 4672 10-23-17
170 dShadow 17.1% 4676 10-23-17
171 Cutiefox 16.6% 4709 10-23-17
172 Chawkk 16.5% 4712 10-23-17
173 Monkeh 16.3% 4726 10-23-17
174 Miles9999 16.1% 4737 10-23-17
175 DaDude 15.4% 4772 10-23-17
176 Drflash55 15.4% 4776 10-23-17
177 Bass 15.1% 4790 10-23-17
178 Cruizer 14.9% 4802 10-23-17
179 Destroyer121121 14.8% 4806 10-23-17
180 Badlex727 14.8% 4808 10-23-17
181 superiorsonic 14.6% 4817 10-23-17
182 neaolas 14.6% 4820 10-23-17
183 zapp 14.5% 4828 10-23-17
184 Yish 14.4% 4829 10-23-17
185 UninspiredUsername 14.2% 4842 10-23-17
186 gamefreak1292 13.9% 4859 10-23-17
187 Cooljay 13.8% 4866 10-23-17
188 Sora_yx 13.3% 4894 10-23-17
189 Chaos_Overlord 13.0% 4911 10-23-17
190 GarnetPrincess 12.7% 4928 10-23-17
191 Valfore 12.5% 4941 10-23-17
192 soniccoloursunleashed 12.1% 4963 10-23-17
193 Dage4Aquatic 12.0% 4967 10-23-17
194 ShinigamiMachine 11.8% 4979 10-23-17
195 booo95 11.5% 4995 10-23-17
196 Sonicsuperstar1 11.4% 5003 10-23-17
197 SirTobbii 11.0% 5021 10-23-17
198 sonicspeed 11.0% 5022 10-23-17
199 Werey 10.9% 5029 10-23-17
200 FocusSight64 10.9% 5030 10-23-17
201 Jua Rever 10.7% 5038 10-23-17
201 Mo Player Banned 10.7% 5038 10-23-17
203 Sithwarrior26 9.7% 5098 10-23-17
203 Venick409 9.7% 5098 10-23-17
205 nman36 9.6% 5100 10-23-17
206 ingx24 9.1% 5130 10-23-17
207 CyberShadow 9.1% 5132 10-23-17
208 dekki1234 9.0% 5138 10-23-17
209 Fozer 8.8% 5150 10-23-17
210 Colomb_30 8.7% 5154 10-23-17
211 Egor305 8.6% 5161 10-23-17
212 Regano1000 8.4% 5170 10-23-17
213 douglas 8.1% 5185 10-23-17
214 1stKirbyever 8.1% 5189 10-23-17
215 nuckrieg 8.0% 5195 10-23-17
216 TimTH 7.8% 5202 10-23-17
217 Brian_pso 7.7% 5210 10-23-17
218 wheatrich 7.6% 5215 10-23-17
219 Zip 7.5% 5221 10-23-17
220 Th4tN1nj4Turtl3 7.5% 5222 10-23-17
221 TakaRikka 7.4% 5226 10-23-17
222 niscool 7.2% 5238 10-23-17
223 Mariosonic15 7.1% 5244 10-23-17
224 ieatatsonic 6.8% 5261 10-23-17
225 Triseena 6.8% 5262 10-23-17
226 MStitomix 6.7% 5267 10-23-17
227 HermitHelmet 6.6% 5269 10-23-17
228 Artie 6.4% 5284 10-23-17
229 Got4n 6.3% 5286 10-23-17
230 Cort_pso 6.3% 5290 10-23-17
231 BlankTH 6.1% 5302 10-23-17
232 Jose_15 6.0% 5305 10-23-17
233 SuperSonicfan9595 5.8% 5319 10-23-17
234 Richied 5.7% 5323 10-23-17
235 Ace747 5.6% 5329 10-23-17
236 HHNNBBHHN 5.5% 5336 10-23-17
237 Aiko 5.3% 5347 10-23-17
238 Paixii 5.2% 5348 10-23-17
239 slade23 5.1% 5359 10-23-17
240 BallzeH 5.0% 5363 10-23-17
241 Mankster101 5.0% 5364 10-23-17
242 ArcticDragon 4.9% 5369 10-23-17
243 FSSRandomvids 4.9% 5370 10-23-17
244 BecauseWarAnvil 4.8% 5372 10-23-17
244 PsyBorg 4.8% 5372 10-23-17
246 Jamixesa 4.8% 5375 10-23-17
247 Nickson98 4.6% 5382 10-23-17
248 Crydio 4.5% 5389 10-23-17
249 TheUltraBlur 4.4% 5394 10-23-17
250 MarewBFN 4.3% 5402 10-23-17
251 tal39h 4.2% 5405 10-23-17
252 ALundstrom10 4.2% 5407 10-23-17
253 stanski 4.2% 5408 10-23-17
254 knuckles_sonic8 4.0% 5421 10-23-17
255 p0ker 3.9% 5422 10-23-17
256 Blue Infamy 3.9% 5424 10-23-17
257 ErrortheCucco 3.7% 5435 10-23-17
258 Rikum22 3.7% 5438 10-23-17
259 TheChaosEmeraIds 3.5% 5445 10-23-17
260 sonic1001 3.5% 5446 10-23-17
261 AJSIV 3.4% 5452 10-23-17
262 syco1098 3.4% 5453 10-23-17
263 Sonic the Hedgehod16 3.3% 5456 10-23-17
264 ASINISTERTACO 3.2% 5463 10-23-17
265 Calfd 3.1% 5467 10-23-17
266 sonicfan9 3.1% 5468 10-23-17
267 MK 3.0% 5474 10-23-17
268 themachoman202 2.9% 5478 10-23-17
269 Fivavoa 2.8% 5487 10-23-17
270 Mr. Jones 2.7% 5489 10-23-17
271 djmat 2.7% 5491 10-23-17
272 arcfx1985 2.7% 5492 10-23-17
272 BlackArmsShadow 2.7% 5492 10-23-17
274 ptorflaxendrosis 2.7% 5494 10-23-17
275 Sonique Hedgehog 2.6% 5496 10-23-17
276 FlandreScarlet9999vr 2.6% 5500 10-23-17
277 Zeldocto 2.5% 5502 10-23-17
278 KaM Mark MaK 2.5% 5504 10-23-17
279 BeeAwwb 2.4% 5506 10-23-17
280 ShadouZaHejjihoggu 2.3% 5512 10-23-17
281 darkstarblaze 2.3% 5516 10-23-17
282 Sarger001 2.2% 5519 10-23-17
283 Sonic The Star 2.2% 5521 10-23-17
284 darkersupershadic 2.2% 5522 10-23-17
285 SpiritDragon1995 2.1% 5523 10-23-17
286 Grady219 2.1% 5527 10-23-17
287 sonic29887 2.1% 5528 10-23-17
288 BioShadow 2.0% 5530 10-23-17
289 shadowblast63 Player Banned 1.9% 5535 10-23-17
290 Jawaah 1.9% 5536 10-23-17
291 Antek 1.8% 5540 10-23-17
292 Klaus 1.8% 5542 10-23-17
293 SkyBon 1.7% 5546 10-23-17
294 Shanekilz 1.4% 5564 10-23-17
295 isaihtb11 1.4% 5566 10-23-17
296 OhNoes! 1.3% 5570 10-23-17
296 zaktu40 1.3% 5570 10-23-17
298 gaara1234 1.3% 5573 10-23-17
299 S-MS32X-S 1.2% 5574 10-23-17
300 MastaToken 1.1% 5580 10-23-17
301 Mister_Slick 1.0% 5585 10-23-17
302 Sonic06Fan 1.0% 5588 10-23-17
303 Rush Hero 1.0% 5589 10-23-17
304 SonicMega167 0.9% 5594 10-23-17
305 oTaiIilLsS 0.9% 5595 10-23-17
306 gamed00d 0.8% 5597 10-23-17
306 SilverK 0.8% 5597 10-23-17
308 Heroes_Hater 0.7% 5605 10-23-17
309 Redd 0.7% 5607 10-23-17
310 Burningskull123 0.6% 5613 10-23-17
311 Sonicontherun 0.4% 5624 10-23-17
312 antiwwe 0.3% 5630 10-23-17
313 Iwannabelink 0.2% 5632 10-23-17
314 Genuine Hedgehog 0.2% 5633 10-23-17
314 SonataSpinDash 0.2% 5633 10-23-17
316 dragondragon18 0.1% 5637 10-23-17
317 SonicK100 0.1% 5639 10-23-17
318 Tyrouble 0.0% 5644 10-23-17
319 LancexExWx 0.0% 5647 10-23-17
319 neji_hyuuga 0.0% 5647 10-23-17
319 Over 0.0% 5647 10-23-17
319 sdj6707 Player Banned 0.0% 5647 10-23-17
319 Tran Sonic Fan Player Banned 0.0% 5647 10-23-17

This page is using the New Data Table System. [FUTURE]

Game ID: 3 | Category ID: 1
Hits: 8,754 | Hits This Month: 24 | DB Calls: 24 | Mem Usage: 5.47 MB | Time: 0.14s | Printable

The Sonic Center v3.9
Copyright 2003-2011 by The Sonic Center Team.